Time;durP1;ratioP1;P1;durP2;ratioP2;P2;SDS_P1;SDS_P2;PMS_P1;PMS_P2;Temp;Humidity;BMP_temperature;BMP_pressure;BME280_temperature;BME280_humidity;BME280_pressure;Samples;Min_cycle;Max_cycle;Signal;HPM_P1;HPM_P2
2022/07/08 00:00:22;;;;;;;;;;;;;;;25.40;48.46;98777.50;2086912;28;20015;-47
2022/07/08 00:01:22;;;;;;;;;;;;;;;25.40;48.18;98771.25;2088602;28;19932;-50
2022/07/08 00:02:24;;;;;;;;;;;;;;;25.41;48.16;98772.91;2082905;28;19939;-49
2022/07/08 00:03:24;;;;;;;;;;;;;;;25.44;48.24;98766.16;2085942;28;19935;-48
2022/07/08 00:04:26;;;;;;;;;;;;;;;25.35;48.39;98768.44;2089355;28;19966;-49
2022/07/08 00:05:27;;;;;;;;;;;;;;;25.45;48.19;98765.91;2087979;28;19969;-48
2022/07/08 00:06:28;;;;;;;;;;;;;;;25.52;47.96;98757.59;2090160;28;19936;-49
2022/07/08 00:07:29;;;;;;;;;;;;;;;25.48;47.80;98764.59;2090007;28;20349;-48
2022/07/08 00:08:31;;;;;;;;;;;;;;;25.45;48.01;98759.66;2089111;28;19932;-49
2022/07/08 00:09:31;;;;;;;;;;;;;;;25.29;48.12;98763.97;2089908;28;20008;-50
2022/07/08 00:10:33;;;;;;;;;;;;;;;25.34;48.15;98766.78;2090431;28;19935;-49
2022/07/08 00:11:34;;;;;;;;;;;;;;;25.35;48.24;98752.13;2089165;28;20291;-49
2022/07/08 00:12:35;;;;;;;;;;;;;;;25.29;48.34;98758.56;2088204;28;19928;-47
2022/07/08 00:13:37;;;;;;;;;;;;;;;25.38;48.19;98754.38;2087541;28;19928;-51
2022/07/08 00:14:39;;;;;;;;;;;;;;;25.40;47.82;98752.22;2087345;28;19924;-49
2022/07/08 00:15:39;;;;;;;;;;;;;;;25.36;47.44;98753.81;2085188;28;20543;-47
2022/07/08 00:16:43;;;;;;;;;;;;;;;25.36;48.05;98754.63;2088890;28;19924;-48
2022/07/08 00:17:43;;;;;;;;;;;;;;;25.29;48.23;98758.56;2090257;28;19955;-45
2022/07/08 00:18:45;;;;;;;;;;;;;;;25.29;48.24;98755.84;2090096;28;20465;-48
2022/07/08 00:19:45;;;;;;;;;;;;;;;25.32;47.81;98755.34;2088990;28;20539;-50
2022/07/08 00:20:47;;;;;;;;;;;;;;;25.22;48.29;98756.00;2087918;28;19924;-49
2022/07/08 00:21:49;;;;;;;;;;;;;;;25.37;47.98;98747.28;2088942;28;20012;-48
2022/07/08 00:22:51;;;;;;;;;;;;;;;25.40;47.85;98752.22;2085399;28;19959;-50
2022/07/08 00:25:11;;;;;;;;;;;;;;;25.21;48.02;98759.78;2087829;28;19973;-47
2022/07/08 00:26:12;;;;;;;;;;;;;;;25.25;48.16;98751.97;2090019;28;20354;-51
2022/07/08 00:27:14;;;;;;;;;;;;;;;25.30;48.07;98754.78;2089439;28;19986;-49
2022/07/08 00:28:14;;;;;;;;;;;;;;;25.35;47.69;98757.56;2090105;28;19932;-49
2022/07/08 00:29:18;;;;;;;;;;;;;;;25.28;47.83;98749.59;2086539;28;20283;-49
2022/07/08 00:30:18;;;;;;;;;;;;;;;25.25;48.14;98754.69;2089525;28;19928;-48
2022/07/08 00:31:20;;;;;;;;;;;;;;;25.21;47.85;98751.63;2088561;28;19981;-48
2022/07/08 00:32:21;;;;;;;;;;;;;;;25.22;48.19;98763.34;2088637;28;19929;-50
2022/07/08 00:33:22;;;;;;;;;;;;;;;25.29;48.00;98761.28;2090286;28;19935;-50
2022/07/08 00:34:23;;;;;;;;;;;;;;;25.30;47.90;98758.31;2089372;28;19932;-49
2022/07/08 00:35:25;;;;;;;;;;;;;;;25.27;47.98;98755.25;2089999;28;20008;-52
2022/07/08 00:36:27;;;;;;;;;;;;;;;25.24;47.96;98745.75;2089905;28;20901;-49
2022/07/08 00:37:28;;;;;;;;;;;;;;;25.23;48.07;98764.97;2088904;28;19993;-48
2022/07/08 00:38:29;;;;;;;;;;;;;;;25.21;48.13;98758.94;2089661;28;20011;-52
2022/07/08 00:39:30;;;;;;;;;;;;;;;25.20;48.44;98755.41;2088599;28;19998;-50
2022/07/08 00:40:31;;;;;;;;;;;;;;;25.22;48.15;98760.63;2089324;28;20568;-48
2022/07/08 00:41:32;;;;;;;;;;;;;;;25.21;48.15;98765.19;2087801;28;19932;-48
2022/07/08 00:42:34;;;;;;;;;;;;;;;25.30;47.85;98762.94;2088595;28;19924;-51
2022/07/08 00:43:35;;;;;;;;;;;;;;;25.29;48.20;98759.38;2090135;28;19966;-49
2022/07/08 00:44:38;;;;;;;;;;;;;;;25.26;47.93;98759.88;2088116;28;20057;-53
2022/07/08 00:45:39;;;;;;;;;;;;;;;25.23;48.13;98764.97;2087355;28;19924;-50
2022/07/08 00:46:41;;;;;;;;;;;;;;;25.16;48.22;98763.22;2088757;28;19932;-47
2022/07/08 00:47:42;;;;;;;;;;;;;;;25.08;48.51;98765.50;2089741;28;20234;-46
2022/07/08 00:48:44;;;;;;;;;;;;;;;25.14;48.17;98768.06;2089045;28;19924;-47
2022/07/08 00:49:45;;;;;;;;;;;;;;;25.21;48.09;98765.19;2090227;28;19925;-50
2022/07/08 00:50:46;;;;;;;;;;;;;;;25.15;48.25;98769.72;2089871;28;19931;-47
2022/07/08 00:51:48;;;;;;;;;;;;;;;25.16;48.04;98767.84;2089856;28;21103;-49
2022/07/08 00:52:49;;;;;;;;;;;;;;;25.24;47.86;98759.31;2090823;28;19924;-49
2022/07/08 00:53:52;;;;;;;;;;;;;;;25.14;47.81;98765.34;2089970;28;19933;-51
2022/07/08 00:54:52;;;;;;;;;;;;;;;25.08;48.26;98771.75;2087709;28;20542;-47
2022/07/08 00:55:54;;;;;;;;;;;;;;;25.14;48.53;98761.78;2091693;28;19935;-48
2022/07/08 00:56:55;;;;;;;;;;;;;;;25.15;47.89;98767.00;2091181;28;20607;-50
2022/07/08 00:57:57;;;;;;;;;;;;;;;25.11;47.56;98765.00;2091166;28;19942;-50
2022/07/08 00:58:57;;;;;;;;;;;;;;;25.12;47.10;98762.03;2089664;28;19925;-48
2022/07/08 01:00:00;;;;;;;;;;;;;;;25.10;46.58;98760.63;2091660;28;20007;-49
2022/07/08 01:01:01;;;;;;;;;;;;;;;24.94;46.59;98760.34;2091065;28;19924;-49
2022/07/08 01:02:03;;;;;;;;;;;;;;;24.93;46.33;98757.88;2091468;28;19928;-52
2022/07/08 01:03:03;;;;;;;;;;;;;;;24.74;46.69;98754.53;2090420;28;19925;-49
2022/07/08 01:04:05;;;;;;;;;;;;;;;24.57;47.30;98759.03;2091902;28;19967;-49
2022/07/08 01:05:08;;;;;;;;;;;;;;;24.61;46.90;98746.66;2090909;28;21605;-49
2022/07/08 01:06:09;;;;;;;;;;;;;;;24.68;46.79;98753.59;2088270;28;19929;-50
2022/07/08 01:07:10;;;;;;;;;;;;;;;24.77;46.21;98745.06;2091199;28;20063;-49
2022/07/08 01:08:11;;;;;;;;;;;;;;;24.71;46.15;98746.84;2093067;28;19924;-48
2022/07/08 01:09:14;;;;;;;;;;;;;;;24.69;46.13;98736.25;2091293;28;20443;-48
2022/07/08 01:10:16;;;;;;;;;;;;;;;24.65;45.98;98743.22;2092264;28;20015;-49
2022/07/08 01:11:17;;;;;;;;;;;;;;;24.54;46.19;98746.78;2088639;28;19932;-48
2022/07/08 01:12:18;;;;;;;;;;;;;;;24.58;46.45;98741.72;2092277;28;20446;-50
2022/07/08 01:13:19;;;;;;;;;;;;;;;24.56;46.29;98747.38;2091806;28;19929;-49
2022/07/08 01:14:21;;;;;;;;;;;;;;;24.59;46.22;98746.06;2090677;28;20583;-50
2022/07/08 01:15:23;;;;;;;;;;;;;;;24.56;45.98;98749.28;2090926;28;20561;-49
2022/07/08 01:16:24;;;;;;;;;;;;;;;24.40;46.43;98751.63;2092170;28;20326;-52
2022/07/08 01:17:26;;;;;;;;;;;;;;;24.45;46.47;98749.03;2090513;28;19928;-52
2022/07/08 01:18:28;;;;;;;;;;;;;;;24.39;45.99;98744.56;2092228;28;19935;-52
2022/07/08 01:19:29;;;;;;;;;;;;;;;24.33;46.35;98740.09;2090176;28;20598;-50
2022/07/08 01:20:33;;;;;;;;;;;;;;;24.42;46.17;98748.69;2091245;28;20015;-49
2022/07/08 01:21:35;;;;;;;;;;;;;;;24.49;45.83;98747.53;2089707;28;20738;-51
2022/07/08 01:22:37;;;;;;;;;;;;;;;24.49;45.85;98744.81;2092584;28;19924;-53
2022/07/08 01:23:37;;;;;;;;;;;;;;;24.45;45.78;98742.81;2091635;28;19928;-48
2022/07/08 01:24:39;;;;;;;;;;;;;;;24.29;46.01;98744.31;2092361;28;19939;-48
2022/07/08 01:25:39;;;;;;;;;;;;;;;24.30;45.74;98735.97;2091501;28;20005;-53
2022/07/08 01:26:41;;;;;;;;;;;;;;;24.25;45.90;98735.84;2092510;28;19928;-50
2022/07/08 01:27:42;;;;;;;;;;;;;;;24.28;46.15;98738.09;2090609;28;19935;-50
2022/07/08 01:28:44;;;;;;;;;;;;;;;24.30;45.89;98741.41;2092621;28;20035;-48
2022/07/08 01:29:44;;;;;;;;;;;;;;;24.35;45.82;98734.41;2090565;28;19929;-51
2022/07/08 01:30:46;;;;;;;;;;;;;;;24.25;45.71;98729.63;2090126;28;19925;-52
2022/07/08 01:31:51;;;;;;;;;;;;;;;24.29;45.81;98730.78;2091330;28;19929;-50
2022/07/08 01:32:52;;;;;;;;;;;;;;;24.25;45.69;98729.63;2091524;28;19928;-50
2022/07/08 01:33:53;;;;;;;;;;;;;;;24.23;45.80;98724.41;2091761;28;19964;-51
2022/07/08 01:34:54;;;;;;;;;;;;;;;24.23;45.90;98732.56;2091333;28;19970;-51
2022/07/08 01:35:56;;;;;;;;;;;;;;;24.25;45.77;98722.31;2091869;28;20050;-51
2022/07/08 01:36:58;;;;;;;;;;;;;;;24.25;45.55;98729.63;2091713;28;19932;-49
2022/07/08 01:37:59;;;;;;;;;;;;;;;24.28;45.47;98726.44;2092121;28;19928;-47
2022/07/08 01:39:01;;;;;;;;;;;;;;;24.18;45.46;98724.34;2091773;28;19933;-49
2022/07/08 01:40:02;;;;;;;;;;;;;;;24.18;45.53;98727.06;2092682;28;20559;-51
2022/07/08 01:41:03;;;;;;;;;;;;;;;24.07;45.45;98731.41;2091501;28;19931;-50
2022/07/08 01:42:04;;;;;;;;;;;;;;;24.13;45.75;98729.66;2092004;28;20000;-50
2022/07/08 01:43:06;;;;;;;;;;;;;;;24.07;45.69;98725.16;2091518;28;20545;-51
2022/07/08 01:44:08;;;;;;;;;;;;;;;24.16;45.35;98723.75;2092654;28;20390;-52
2022/07/08 01:45:10;;;;;;;;;;;;;;;24.22;45.04;98725.50;2090512;28;20307;-53
2022/07/08 01:46:11;;;;;;;;;;;;;;;24.16;45.21;98722.94;2089752;28;19985;-53
2022/07/08 01:47:12;;;;;;;;;;;;;;;24.18;45.13;98726.19;2092491;28;20325;-50
2022/07/08 01:48:13;;;;;;;;;;;;;;;24.09;45.04;98723.84;2091988;28;20489;-48
2022/07/08 01:49:15;;;;;;;;;;;;;;;24.09;45.17;98725.75;2091838;28;19974;-51
2022/07/08 01:50:15;;;;;;;;;;;;;;;24.02;45.43;98725.06;2093049;28;19987;-49
2022/07/08 01:51:17;;;;;;;;;;;;;;;24.06;45.40;98718.09;2089982;28;19928;-51
2022/07/08 01:52:19;;;;;;;;;;;;;;;24.03;45.31;98726.69;2087143;28;19928;-50
2022/07/08 01:53:21;;;;;;;;;;;;;;;24.10;44.95;98724.69;2091080;28;19929;-51
2022/07/08 01:54:21;;;;;;;;;;;;;;;24.12;45.41;98727.97;2091862;28;19936;-48
2022/07/08 01:55:23;;;;;;;;;;;;;;;24.28;46.53;98727.25;2090551;28;19925;-51
2022/07/08 01:56:24;;;;;;;;;;;;;;;24.37;47.08;98735.00;2092193;28;19939;-47
2022/07/08 01:57:25;;;;;;;;;;;;;;;24.45;46.92;98738.19;2091204;28;19931;-52
2022/07/08 01:58:26;;;;;;;;;;;;;;;24.44;47.39;98741.16;2090928;28;19924;-51
2022/07/08 01:59:27;;;;;;;;;;;;;;;24.47;47.33;98748.81;2090318;28;19928;-52
2022/07/08 02:00:28;;;;;;;;;;;;;;;24.48;47.39;98750.47;2091757;28;19925;-52
2022/07/08 02:01:30;;;;;;;;;;;;;;;24.54;47.35;98752.22;2090386;28;19924;-49
2022/07/08 02:02:30;;;;;;;;;;;;;;;24.57;47.42;98746.31;2091548;28;19932;-49
2022/07/08 02:03:32;;;;;;;;;;;;;;;24.60;47.69;98753.97;2091892;28;20636;-49
2022/07/08 02:04:32;;;;;;;;;;;;;;;24.59;47.52;98752.31;2090854;28;19935;-48
2022/07/08 02:05:34;;;;;;;;;;;;;;;24.64;47.24;98757.84;2091514;28;19928;-52
2022/07/08 02:06:35;;;;;;;;;;;;;;;24.52;47.74;98752.47;2091542;28;20421;-48
2022/07/08 02:07:38;;;;;;;;;;;;;;;24.52;47.84;98757.88;2088914;28;19936;-50
2022/07/08 02:08:38;;;;;;;;;;;;;;;24.59;47.63;98755.03;2090020;28;19924;-50
2022/07/08 02:09:40;;;;;;;;;;;;;;;24.58;47.79;98755.28;2090359;28;19955;-49
2022/07/08 02:12:18;;;;;;;;;;;;;;;24.66;48.02;98761.16;2091452;28;20007;-50
2022/07/08 02:13:20;;;;;;;;;;;;;;;24.76;47.56;98760.53;2092129;28;19935;-49
2022/07/08 02:14:21;;;;;;;;;;;;;;;24.73;48.00;98767.25;2091377;28;19969;-53
2022/07/08 02:15:22;;;;;;;;;;;;;;;24.74;47.81;98763.50;2088431;28;19932;-49
2022/07/08 02:16:23;;;;;;;;;;;;;;;24.69;48.06;98765.28;2090880;28;20406;-48
2022/07/08 02:17:25;;;;;;;;;;;;;;;24.69;47.86;98754.44;2092973;28;19935;-48
2022/07/08 02:18:25;;;;;;;;;;;;;;;24.62;48.36;98757.25;2091084;28;20755;-51
2022/07/08 02:19:27;;;;;;;;;;;;;;;24.65;48.12;98758.66;2091326;28;19928;-47
2022/07/08 02:20:27;;;;;;;;;;;;;;;24.75;48.31;98765.13;2092210;28;20621;-50
2022/07/08 02:21:29;;;;;;;;;;;;;;;24.69;48.38;98768.00;2092540;28;19928;-50
2022/07/08 02:22:29;;;;;;;;;;;;;;;24.76;47.95;98771.38;2091211;28;19933;-49
2022/07/08 02:23:32;;;;;;;;;;;;;;;24.74;48.04;98768.91;2092351;28;20467;-48
2022/07/08 02:24:33;;;;;;;;;;;;;;;24.62;48.03;98768.09;2091064;28;19928;-49
2022/07/08 02:25:34;;;;;;;;;;;;;;;24.60;48.35;98772.97;2091342;28;19930;-48
2022/07/08 02:26:35;;;;;;;;;;;;;;;24.68;48.34;98772.59;2091424;28;19948;-51
2022/07/08 02:27:37;;;;;;;;;;;;;;;24.74;48.23;98768.09;2090348;28;19959;-50
2022/07/08 02:28:37;;;;;;;;;;;;;;;24.72;48.00;98776.47;2091507;28;19925;-50
2022/07/08 02:29:39;;;;;;;;;;;;;;;24.77;48.23;98773.03;2091800;28;19932;-50
2022/07/08 02:30:39;;;;;;;;;;;;;;;24.75;48.17;98775.97;2087191;28;19939;-47
2022/07/08 02:31:41;;;;;;;;;;;;;;;24.74;47.92;98773.53;2090331;28;19928;-48
2022/07/08 02:32:42;;;;;;;;;;;;;;;24.64;48.19;98778.72;2090680;28;19981;-48
2022/07/08 02:33:43;;;;;;;;;;;;;;;24.61;48.52;98779.22;2091663;28;19951;-49
2022/07/08 02:34:44;;;;;;;;;;;;;;;24.56;48.60;98782.63;2092028;28;19973;-49
2022/07/08 02:35:45;;;;;;;;;;;;;;;24.66;48.25;98779.31;2091007;28;20445;-50
2022/07/08 02:36:46;;;;;;;;;;;;;;;24.69;48.18;98776.13;2091545;28;19932;-52
2022/07/08 02:37:47;;;;;;;;;;;;;;;24.66;48.26;98774.72;2086263;28;19979;-50
2022/07/08 02:38:49;;;;;;;;;;;;;;;24.67;48.17;98778.25;2090553;28;20005;-49
2022/07/08 02:39:52;;;;;;;;;;;;;;;24.58;48.49;98785.13;2090124;28;19977;-49
2022/07/08 02:40:52;;;;;;;;;;;;;;;24.57;48.30;98783.44;2091434;28;19940;-49
2022/07/08 02:41:54;;;;;;;;;;;;;;;24.58;48.59;98785.94;2090809;28;19971;-50
2022/07/08 02:42:55;;;;;;;;;;;;;;;24.59;48.36;98782.16;2091905;28;19939;-49
2022/07/08 02:43:56;;;;;;;;;;;;;;;24.65;48.41;98783.91;2092031;28;19924;-51
2022/07/08 02:44:57;;;;;;;;;;;;;;;24.70;48.14;98784.00;2090839;28;19939;-51
2022/07/08 02:45:58;;;;;;;;;;;;;;;24.69;48.25;98782.38;2088357;28;19932;-48
2022/07/08 02:46:59;;;;;;;;;;;;;;;24.70;47.92;98786.72;2091385;28;19928;-49
2022/07/08 02:48:00;;;;;;;;;;;;;;;24.60;48.13;98791.09;2088714;28;20666;-47
2022/07/08 02:49:01;;;;;;;;;;;;;;;24.54;48.42;98787.47;2092017;28;19931;-49
2022/07/08 02:50:03;;;;;;;;;;;;;;;24.54;48.28;98784.75;2091948;28;19931;-47
2022/07/08 02:51:04;;;;;;;;;;;;;;;24.60;48.28;98788.38;2092511;28;20414;-50
2022/07/08 02:52:05;;;;;;;;;;;;;;;24.64;48.24;98784.97;2091338;28;19929;-49
2022/07/08 02:53:06;;;;;;;;;;;;;;;24.62;48.22;98791.69;2091821;28;19935;-49
2022/07/08 02:54:09;;;;;;;;;;;;;;;24.67;47.83;98789.09;2091718;28;20015;-49
2022/07/08 02:55:09;;;;;;;;;;;;;;;24.61;47.26;98790.88;2088922;28;19939;-50
2022/07/08 02:56:11;;;;;;;;;;;;;;;24.48;47.05;98794.66;2091317;28;19964;-49
2022/07/08 02:57:12;;;;;;;;;;;;;;;24.28;46.98;98797.72;2091908;28;19981;-47
2022/07/08 02:58:13;;;;;;;;;;;;;;;24.24;46.81;98791.13;2091947;28;19944;-49
2022/07/08 02:59:15;;;;;;;;;;;;;;;24.22;47.13;98793.25;2091323;28;19950;-50
2022/07/08 03:00:15;;;;;;;;;;;;;;;24.25;46.64;98792.78;2091983;28;20346;-50
2022/07/08 03:01:17;;;;;;;;;;;;;;;24.03;46.92;98800.66;2088917;28;19929;-46
2022/07/08 03:02:17;;;;;;;;;;;;;;;24.07;46.55;98801.00;2091845;28;19930;-51
2022/07/08 03:03:19;;;;;;;;;;;;;;;24.07;46.14;98801.00;2090974;28;20448;-47
2022/07/08 03:04:20;;;;;;;;;;;;;;;24.04;46.38;98798.78;2091163;28;19963;-49
2022/07/08 03:05:21;;;;;;;;;;;;;;;23.96;45.84;98804.53;2092793;28;20416;-48
2022/07/08 03:06:22;;;;;;;;;;;;;;;24.01;46.34;98805.50;2092012;28;20358;-48
2022/07/08 03:07:23;;;;;;;;;;;;;;;23.99;46.12;98807.63;2092802;28;19964;-47
2022/07/08 03:08:24;;;;;;;;;;;;;;;23.98;46.14;98811.38;2092499;28;19933;-50
2022/07/08 03:09:27;;;;;;;;;;;;;;;24.04;45.78;98812.31;2091005;28;19991;-48
2022/07/08 03:10:27;;;;;;;;;;;;;;;24.08;45.66;98808.09;2091034;28;19925;-49
2022/07/08 03:11:29;;;;;;;;;;;;;;;23.98;45.61;98813.28;2091910;28;19928;-48
2022/07/08 03:12:29;;;;;;;;;;;;;;;23.87;45.96;98812.19;2090692;28;19928;-50
2022/07/08 03:13:31;;;;;;;;;;;;;;;23.80;45.77;98812.31;2091415;28;19932;-50
2022/07/08 03:14:32;;;;;;;;;;;;;;;23.81;46.25;98813.97;2090506;28;20026;-47
2022/07/08 03:15:33;;;;;;;;;;;;;;;23.85;46.00;98809.75;2090341;28;19925;-48
2022/07/08 03:16:35;;;;;;;;;;;;;;;23.87;45.95;98814.91;2089976;28;19925;-50
2022/07/08 03:17:37;;;;;;;;;;;;;;;23.90;45.72;98819.03;2089529;28;19950;-48
2022/07/08 03:18:37;;;;;;;;;;;;;;;23.86;45.61;98816.78;2087728;28;19932;-47
2022/07/08 03:19:39;;;;;;;;;;;;;;;23.80;45.67;98817.72;2088482;28;19928;-53
2022/07/08 03:20:39;;;;;;;;;;;;;;;23.74;45.72;98818.66;2089959;28;19932;-50
2022/07/08 03:21:41;;;;;;;;;;;;;;;23.73;45.74;98814.28;2091516;28;19929;-48
2022/07/08 03:22:42;;;;;;;;;;;;;;;23.77;46.19;98815.50;2089346;28;20520;-49
2022/07/08 03:23:43;;;;;;;;;;;;;;;23.66;46.05;98816.28;2088741;28;19969;-50
2022/07/08 03:24:45;;;;;;;;;;;;;;;23.87;45.45;98814.91;2088006;28;19925;-47
2022/07/08 03:25:47;;;;;;;;;;;;;;;23.91;45.24;98810.69;2088483;28;20624;-51
2022/07/08 03:26:47;;;;;;;;;;;;;;;23.92;45.29;98820.44;2088199;28;19935;-46
2022/07/08 03:27:49;;;;;;;;;;;;;;;23.90;45.09;98816.31;2090435;28;19928;-50
2022/07/08 03:28:49;;;;;;;;;;;;;;;23.79;45.67;98821.50;2088857;28;20023;-51
2022/07/08 03:29:51;;;;;;;;;;;;;;;23.73;45.39;98822.41;2089173;28;19932;-50
2022/07/08 03:30:51;;;;;;;;;;;;;;;23.74;45.88;98824.09;2087361;28;19933;-50
2022/07/08 03:31:53;;;;;;;;;;;;;;;23.68;45.45;98825.00;2089395;28;19945;-50
2022/07/08 03:32:53;;;;;;;;;;;;;;;23.72;45.75;98828.91;2091010;28;20027;-50
2022/07/08 03:33:55;;;;;;;;;;;;;;;23.71;45.91;98831.84;2093692;28;20204;-49
2022/07/08 03:34:56;;;;;;;;;;;;;;;23.73;45.20;98835.97;2093256;28;19971;-51
2022/07/08 03:35:57;;;;;;;;;;;;;;;23.60;45.24;98834.25;2093497;28;20775;-50
2022/07/08 03:36:59;;;;;;;;;;;;;;;23.59;45.88;98838.00;2090291;28;19924;-49
2022/07/08 03:37:59;;;;;;;;;;;;;;;23.54;45.67;98845.19;2090954;28;19924;-48
2022/07/08 03:39:01;;;;;;;;;;;;;;;23.55;45.85;98847.66;2089971;28;19929;-49
2022/07/08 03:41:23;;;;;;;;;;;;;;;23.86;46.34;98843.88;2087855;28;19932;-48
2022/07/08 03:42:24;;;;;;;;;;;;;;;23.92;46.78;98842.13;2089297;28;19982;-51
2022/07/08 03:43:25;;;;;;;;;;;;;;;23.82;47.02;98845.41;2088631;28;19935;-48
2022/07/08 03:44:26;;;;;;;;;;;;;;;23.95;47.12;98847.06;2089809;28;19934;-48
2022/07/08 03:45:27;;;;;;;;;;;;;;;23.90;47.13;98849.66;2087962;28;19929;-48
2022/07/08 03:46:28;;;;;;;;;;;;;;;24.00;47.16;98849.09;2091759;28;19982;-49
2022/07/08 03:47:29;;;;;;;;;;;;;;;24.04;47.36;98845.69;2089502;28;19929;-50
2022/07/08 03:48:31;;;;;;;;;;;;;;;24.03;47.26;98856.75;2090432;28;19935;-49
2022/07/08 03:49:31;;;;;;;;;;;;;;;24.09;47.37;98853.09;2089191;28;19988;-49
2022/07/08 03:50:33;;;;;;;;;;;;;;;24.09;47.57;98853.09;2090646;28;20491;-48
2022/07/08 03:51:33;;;;;;;;;;;;;;;24.10;47.47;98854.75;2091021;28;19932;-47
2022/07/08 03:52:35;;;;;;;;;;;;;;;24.08;47.44;98856.88;2091179;28;19928;-48
2022/07/08 03:53:35;;;;;;;;;;;;;;;24.11;47.55;98858.28;2090655;28;20130;-48
2022/07/08 03:54:37;;;;;;;;;;;;;;;24.09;47.47;98862.03;2091424;28;19928;-49
2022/07/08 03:55:39;;;;;;;;;;;;;;;24.17;47.52;98860.88;2085624;28;19928;-49
2022/07/08 03:56:40;;;;;;;;;;;;;;;24.19;47.43;98869.63;2089251;28;20080;-48
2022/07/08 03:57:41;;;;;;;;;;;;;;;24.20;47.33;98868.53;2090751;28;19924;-51
2022/07/08 03:58:42;;;;;;;;;;;;;;;24.16;47.50;98878.22;2089376;28;20524;-51
2022/07/08 03:59:43;;;;;;;;;;;;;;;24.12;47.99;98874.31;2088882;28;19968;-49
2022/07/08 04:00:45;;;;;;;;;;;;;;;24.09;48.36;98870.19;2088388;28;20513;-49
2022/07/08 04:01:46;;;;;;;;;;;;;;;24.13;48.35;98869.75;2089952;28;19924;-47
2022/07/08 04:02:47;;;;;;;;;;;;;;;24.14;48.29;98864.06;2087790;28;20397;-49
2022/07/08 04:03:48;;;;;;;;;;;;;;;24.17;48.47;98868.19;2090243;28;19924;-51
2022/07/08 04:04:49;;;;;;;;;;;;;;;24.27;48.09;98871.97;2090603;28;19929;-49
2022/07/08 04:05:51;;;;;;;;;;;;;;;24.28;47.99;98870.09;2090790;28;19932;-51
2022/07/08 04:06:51;;;;;;;;;;;;;;;24.20;48.18;98871.25;2090567;28;20381;-49
2022/07/08 04:07:53;;;;;;;;;;;;;;;24.14;48.06;98879.50;2089790;28;19963;-47
2022/07/08 04:08:54;;;;;;;;;;;;;;;24.18;48.27;98878.81;2090285;28;20086;-49
2022/07/08 04:09:55;;;;;;;;;;;;;;;24.20;48.12;98873.97;2089218;28;20517;-50
2022/07/08 04:10:58;;;;;;;;;;;;;;;24.31;47.68;98875.84;2088464;28;19931;-49
2022/07/08 04:11:58;;;;;;;;;;;;;;;24.29;47.74;98869.88;2090792;28;19925;-48
2022/07/08 04:13:00;;;;;;;;;;;;;;;24.36;47.75;98877.88;2091040;28;19928;-49
2022/07/08 04:14:01;;;;;;;;;;;;;;;24.35;47.63;98878.94;2091014;28;19925;-47
2022/07/08 04:15:02;;;;;;;;;;;;;;;24.25;47.83;98879.50;2090607;28;19924;-49
2022/07/08 04:16:05;;;;;;;;;;;;;;;24.25;47.93;98876.81;2089237;28;19928;-49
2022/07/08 04:17:06;;;;;;;;;;;;;;;24.19;48.18;98880.44;2089521;28;20019;-48
2022/07/08 04:18:07;;;;;;;;;;;;;;;24.19;48.32;98877.75;2089122;28;19924;-50
2022/07/08 04:19:08;;;;;;;;;;;;;;;24.17;48.19;98881.75;2089248;28;19928;-49
2022/07/08 04:20:10;;;;;;;;;;;;;;;24.29;48.06;98885.28;2091213;28;19928;-48
2022/07/08 04:21:12;;;;;;;;;;;;;;;24.28;48.05;98878.22;2090098;28;19928;-49
2022/07/08 04:22:12;;;;;;;;;;;;;;;24.33;47.88;98881.06;2090626;28;20490;-48
2022/07/08 04:23:14;;;;;;;;;;;;;;;24.31;47.91;98877.75;2090312;28;19975;-48
2022/07/08 04:24:14;;;;;;;;;;;;;;;24.17;48.29;98890.69;2089559;28;19950;-50
2022/07/08 04:25:16;;;;;;;;;;;;;;;24.18;48.15;98889.66;2090659;28;19932;-49
2022/07/08 04:26:18;;;;;;;;;;;;;;;24.22;48.26;98890.00;2084672;28;19924;-49
2022/07/08 04:27:19;;;;;;;;;;;;;;;24.24;48.33;98890.59;2089946;28;19943;-48
2022/07/08 04:28:20;;;;;;;;;;;;;;;24.24;48.24;98891.41;2093325;28;19924;-48
2022/07/08 04:29:22;;;;;;;;;;;;;;;24.30;48.11;98893.19;2092507;28;19928;-49
2022/07/08 04:30:22;;;;;;;;;;;;;;;24.26;47.92;98894.69;2092014;28;19924;-48
2022/07/08 04:31:24;;;;;;;;;;;;;;;24.23;48.26;98892.47;2090970;28;19928;-51
2022/07/08 04:32:24;;;;;;;;;;;;;;;24.20;48.29;98894.81;2088995;28;19933;-53
2022/07/08 04:33:26;;;;;;;;;;;;;;;24.24;48.25;98893.31;2089468;28;19924;-50
2022/07/08 04:34:26;;;;;;;;;;;;;;;24.24;48.33;98893.31;2093247;28;19924;-48
2022/07/08 04:35:28;;;;;;;;;;;;;;;24.21;48.27;98894.59;2092670;28;19992;-50
2022/07/08 04:36:28;;;;;;;;;;;;;;;24.29;48.08;98898.81;2091986;28;20530;-48
2022/07/08 04:37:30;;;;;;;;;;;;;;;24.34;47.83;98898.13;2093527;28;19979;-51
2022/07/08 04:38:32;;;;;;;;;;;;;;;24.21;48.20;98900.03;2092198;28;19933;-49
2022/07/08 04:39:32;;;;;;;;;;;;;;;24.22;48.09;98901.66;2093731;28;19925;-48
2022/07/08 04:40:34;;;;;;;;;;;;;;;24.06;48.31;98902.34;2092237;28;19929;-46
2022/07/08 04:41:37;;;;;;;;;;;;;;;24.06;48.40;98899.63;2093297;28;19999;-49
2022/07/08 04:42:39;;;;;;;;;;;;;;;24.09;48.50;98902.69;2091951;28;19936;-49
2022/07/08 04:43:40;;;;;;;;;;;;;;;24.18;48.11;98900.50;2090307;28;20466;-47
2022/07/08 04:44:41;;;;;;;;;;;;;;;24.27;48.16;98904.50;2091550;28;19932;-51
2022/07/08 04:45:42;;;;;;;;;;;;;;;24.29;47.79;98902.38;2092182;28;20444;-48
2022/07/08 04:46:43;;;;;;;;;;;;;;;24.21;47.98;98901.88;2091001;28;19932;-50
2022/07/08 04:47:46;;;;;;;;;;;;;;;24.13;48.33;98897.66;2088811;28;19928;-50
2022/07/08 04:48:47;;;;;;;;;;;;;;;24.14;48.22;98899.28;2090655;28;19928;-48
2022/07/08 04:49:48;;;;;;;;;;;;;;;24.17;48.33;98900.72;2092708;28;19924;-51
2022/07/08 04:50:49;;;;;;;;;;;;;;;24.16;48.22;98899.91;2092533;28;19925;-49
2022/07/08 04:51:50;;;;;;;;;;;;;;;24.15;48.39;98903.63;2091837;28;19928;-47
2022/07/08 04:52:52;;;;;;;;;;;;;;;24.16;48.44;98902.59;2092473;28;19932;-49
2022/07/08 04:53:53;;;;;;;;;;;;;;;24.19;48.12;98894.00;2090739;28;20479;-47
2022/07/08 04:54:54;;;;;;;;;;;;;;;24.23;48.04;98905.19;2090414;28;19986;-48
2022/07/08 04:55:55;;;;;;;;;;;;;;;24.09;48.11;98913.53;2091854;28;19947;-45
2022/07/08 04:56:58;;;;;;;;;;;;;;;24.07;48.29;98903.97;2087898;28;20478;-50
2022/07/08 04:57:59;;;;;;;;;;;;;;;24.11;48.25;98907.06;2092289;28;19947;-49
2022/07/08 04:59:01;;;;;;;;;;;;;;;24.18;47.88;98907.78;2091733;28;20011;-52
2022/07/08 05:00:02;;;;;;;;;;;;;;;24.15;47.94;98909.06;2093221;28;19943;-50
2022/07/08 05:01:04;;;;;;;;;;;;;;;24.12;47.91;98903.28;2091996;28;19924;-49
2022/07/08 05:02:04;;;;;;;;;;;;;;;24.04;46.77;98905.31;2092821;28;19928;-49
2022/07/08 05:03:06;;;;;;;;;;;;;;;23.89;47.52;98907.59;2092593;28;19928;-48
2022/07/08 05:04:06;;;;;;;;;;;;;;;23.71;46.82;98911.22;2089075;28;20598;-51
2022/07/08 05:05:08;;;;;;;;;;;;;;;23.83;46.88;98911.25;2093111;28;19928;-49
2022/07/08 05:06:09;;;;;;;;;;;;;;;23.69;47.04;98910.59;2090869;28;19936;-49
2022/07/08 05:07:10;;;;;;;;;;;;;;;23.82;46.75;98912.28;2092863;28;20028;-50
2022/07/08 05:08:11;;;;;;;;;;;;;;;23.80;46.17;98909.81;2091864;28;19928;-48
2022/07/08 05:09:13;;;;;;;;;;;;;;;23.72;46.16;98917.44;2093444;28;19970;-50
2022/07/08 05:10:14;;;;;;;;;;;;;;;23.68;46.11;98917.06;2092431;28;19925;-48
2022/07/08 05:11:15;;;;;;;;;;;;;;;23.72;46.01;98902.03;2092923;28;20832;-51
2022/07/08 05:12:17;;;;;;;;;;;;;;;23.53;46.19;98925.56;2093279;28;19954;-51
2022/07/08 05:13:19;;;;;;;;;;;;;;;23.61;46.37;98921.72;2092185;28;19929;-51
2022/07/08 05:14:19;;;;;;;;;;;;;;;23.59;46.24;98921.13;2092847;28;19925;-51
2022/07/08 05:15:21;;;;;;;;;;;;;;;23.62;46.23;98923.38;2093059;28;20305;-48
2022/07/08 05:16:22;;;;;;;;;;;;;;;23.72;45.75;98917.44;2091484;28;19925;-49
2022/07/08 05:17:23;;;;;;;;;;;;;;;23.59;45.83;98923.84;2093376;28;20361;-49
2022/07/08 05:18:24;;;;;;;;;;;;;;;23.58;45.86;98925.72;2092983;28;19944;-49
2022/07/08 05:19:26;;;;;;;;;;;;;;;23.56;45.74;98927.00;2093340;28;20321;-50
2022/07/08 05:20:26;;;;;;;;;;;;;;;23.37;46.07;98929.75;2092759;28;20351;-48
2022/07/08 05:21:28;;;;;;;;;;;;;;;23.38;46.30;98931.41;2092582;28;19929;-52
2022/07/08 05:22:28;;;;;;;;;;;;;;;23.50;45.94;98936.03;2093537;28;19951;-51
2022/07/08 05:23:30;;;;;;;;;;;;;;;23.51;45.82;98932.28;2093042;28;19925;-48